Time;durP1;ratioP1;P1;durP2;ratioP2;P2;SDS_P1;SDS_P2;PMS_P1;PMS_P2;Temp;Humidity;BMP_temperature;BMP_pressure;BME280_temperature;BME280_humidity;BME280_pressure;Samples;Min_cycle;Max_cycle;Signal;HPM_P1;HPM_P2
2022/07/01 00:01:34;;;;;;;8.00;6.03;;;;;;;;;;5080650;28;20027;-69
2022/07/01 00:03:59;;;;;;;8.10;6.55;;;;;;;;;;5081610;28;20020;-69
2022/07/01 00:06:24;;;;;;;8.70;5.30;;;;;;;;;;5075099;28;20016;-70
2022/07/01 00:08:49;;;;;;;9.77;5.72;;;;;;;;;;5075984;28;20025;-69
2022/07/01 00:11:15;;;;;;;8.07;5.72;;;;;;;;;;5084643;28;20377;-69
2022/07/01 00:13:40;;;;;;;7.63;5.30;;;;;;;;;;5086782;28;20257;-70
2022/07/01 00:16:05;;;;;;;8.98;5.90;;;;;;;;;;5079839;28;20021;-70
2022/07/01 00:18:30;;;;;;;9.75;7.10;;;;;;;;;;5085678;28;20467;-69
2022/07/01 00:20:56;;;;;;;7.90;5.13;;;;;;;;;;5084568;28;20559;-69
2022/07/01 00:23:21;;;;;;;13.82;7.15;;;;;;;;;;5081722;28;20486;-69
2022/07/01 00:25:46;;;;;;;11.35;7.72;;;;;;;;;;5085382;28;20468;-69
2022/07/01 00:28:12;;;;;;;13.00;8.52;;;;;;;;;;5087250;28;20176;-69
2022/07/01 00:30:37;;;;;;;11.93;7.93;;;;;;;;;;5080117;28;20024;-69
2022/07/01 00:33:02;;;;;;;12.43;7.90;;;;;;;;;;5084718;28;20470;-69
2022/07/01 00:35:27;;;;;;;12.77;7.10;;;;;;;;;;5086046;28;20036;-70
2022/07/01 00:37:53;;;;;;;11.95;8.15;;;;;;;;;;5085617;28;20392;-69
2022/07/01 00:40:18;;;;;;;13.50;8.05;;;;;;;;;;5088200;28;20024;-69
2022/07/01 00:42:43;;;;;;;11.93;6.97;;;;;;;;;;5086535;28;20375;-69
2022/07/01 00:45:12;;;;;;;12.75;6.88;;;;;;;;;;5083658;28;20017;-70
2022/07/01 00:47:39;;;;;;;12.25;7.75;;;;;;;;;;5081768;28;20046;-69
2022/07/01 00:50:08;;;;;;;15.27;8.00;;;;;;;;;;5080891;28;20026;-69
2022/07/01 00:52:33;;;;;;;10.45;5.78;;;;;;;;;;5076538;28;20028;-69
2022/07/01 00:55:01;;;;;;;14.57;6.57;;;;;;;;;;5077239;28;20024;-69
2022/07/01 00:57:29;;;;;;;11.35;6.95;;;;;;;;;;5084701;28;20025;-69
2022/07/01 00:59:54;;;;;;;11.10;6.20;;;;;;;;;;5083831;28;20019;-69
2022/07/01 01:02:20;;;;;;;9.25;4.85;;;;;;;;;;5082421;28;20067;-69
2022/07/01 01:04:45;;;;;;;11.85;6.18;;;;;;;;;;5084080;28;20047;-70
2022/07/01 01:07:10;;;;;;;15.45;7.30;;;;;;;;;;5085090;28;20043;-70
2022/07/01 01:09:35;;;;;;;16.58;8.27;;;;;;;;;;5086237;28;20020;-71
2022/07/01 01:12:01;;;;;;;16.08;8.68;;;;;;;;;;5089421;28;20081;-70
2022/07/01 01:14:26;;;;;;;15.90;7.57;;;;;;;;;;5092697;28;20095;-70
2022/07/01 01:16:52;;;;;;;17.50;7.90;;;;;;;;;;5088956;28;20031;-70
2022/07/01 01:19:17;;;;;;;15.47;8.67;;;;;;;;;;5087644;28;20047;-70
2022/07/01 01:21:42;;;;;;;12.73;6.82;;;;;;;;;;5090857;28;20073;-70
2022/07/01 01:24:08;;;;;;;23.20;8.67;;;;;;;;;;5080517;28;20021;-70
2022/07/01 01:26:33;;;;;;;13.73;6.50;;;;;;;;;;5094176;28;20020;-69
2022/07/01 01:28:59;;;;;;;9.80;4.97;;;;;;;;;;5093794;28;20395;-70
2022/07/01 01:31:33;;;;;;;20.07;8.20;;;;;;;;;;5089217;28;20413;-70
2022/07/01 01:33:58;;;;;;;13.23;6.35;;;;;;;;;;5082352;28;20033;-70
2022/07/01 01:36:23;;;;;;;16.53;7.67;;;;;;;;;;5087714;28;20020;-70
2022/07/01 01:38:49;;;;;;;10.30;5.13;;;;;;;;;;5090806;28;20019;-70
2022/07/01 01:41:14;;;;;;;11.77;6.43;;;;;;;;;;5094041;28;20081;-70
2022/07/01 01:43:39;;;;;;;9.37;5.13;;;;;;;;;;5090392;28;20028;-70
2022/07/01 01:46:04;;;;;;;11.90;6.55;;;;;;;;;;5088844;28;20095;-70
2022/07/01 01:48:31;;;;;;;10.00;4.77;;;;;;;;;;5091297;28;20016;-69
2022/07/01 01:50:56;;;;;;;13.40;4.53;;;;;;;;;;5091596;28;20547;-69
2022/07/01 01:53:21;;;;;;;7.18;4.00;;;;;;;;;;5089103;28;20063;-69
2022/07/01 01:55:47;;;;;;;11.90;3.10;;;;;;;;;;5087357;28;20051;-70
2022/07/01 01:58:12;;;;;;;8.27;3.30;;;;;;;;;;5086658;28;20129;-69
2022/07/01 02:00:37;;;;;;;5.18;2.50;;;;;;;;;;5090706;28;20071;-69
2022/07/01 02:03:03;;;;;;;9.85;3.10;;;;;;;;;;5085538;28;20054;-69
2022/07/01 02:05:28;;;;;;;8.17;2.90;;;;;;;;;;5086442;28;20031;-70
2022/07/01 02:07:53;;;;;;;6.37;3.07;;;;;;;;;;5089265;28;20020;-70
2022/07/01 02:10:18;;;;;;;9.27;2.50;;;;;;;;;;5086211;28;20054;-69
2022/07/01 02:12:44;;;;;;;10.13;2.40;;;;;;;;;;5092510;28;20035;-70
2022/07/01 02:15:09;;;;;;;4.20;2.27;;;;;;;;;;5084637;28;20031;-69
2022/07/01 02:17:34;;;;;;;8.70;2.60;;;;;;;;;;5082727;28;20027;-70
2022/07/01 02:19:59;;;;;;;7.43;2.50;;;;;;;;;;5084134;28;20020;-69
2022/07/01 02:22:25;;;;;;;5.43;2.17;;;;;;;;;;5083202;28;20620;-69
2022/07/01 02:24:50;;;;;;;10.53;2.50;;;;;;;;;;5085548;28;20028;-69
2022/07/01 02:27:16;;;;;;;7.10;2.63;;;;;;;;;;5083427;28;20383;-69
2022/07/01 02:29:41;;;;;;;7.30;2.60;;;;;;;;;;5084459;28;20076;-69
2022/07/01 02:32:07;;;;;;;6.18;2.78;;;;;;;;;;5080901;28;20029;-69
2022/07/01 02:34:32;;;;;;;10.47;3.30;;;;;;;;;;5080281;28;20535;-69
2022/07/01 02:36:57;;;;;;;9.30;3.03;;;;;;;;;;5082443;28;20578;-69
2022/07/01 02:39:23;;;;;;;5.57;2.47;;;;;;;;;;5082844;28;20107;-69
2022/07/01 02:44:33;;;;;;;7.83;3.20;;;;;;;;;;5090433;28;20039;-69
2022/07/01 02:46:59;;;;;;;12.03;3.20;;;;;;;;;;5083931;28;20016;-69
2022/07/01 02:49:24;;;;;;;7.28;3.17;;;;;;;;;;5083691;28;20034;-69
2022/07/01 02:51:49;;;;;;;7.22;2.70;;;;;;;;;;5085180;28;20097;-69
2022/07/01 02:54:15;;;;;;;6.20;2.80;;;;;;;;;;5087750;28;20105;-69
2022/07/01 02:56:40;;;;;;;7.03;3.10;;;;;;;;;;5080859;28;20082;-69
2022/07/01 02:59:05;;;;;;;6.53;2.80;;;;;;;;;;5082340;28;20067;-69
2022/07/01 03:01:30;;;;;;;6.67;3.80;;;;;;;;;;5086569;28;20036;-69
2022/07/01 03:03:56;;;;;;;8.60;3.67;;;;;;;;;;5089807;28;20035;-69
2022/07/01 03:06:21;;;;;;;7.15;3.28;;;;;;;;;;5080234;28;20035;-69
2022/07/01 03:08:46;;;;;;;8.43;3.10;;;;;;;;;;5085454;28;20532;-69
2022/07/01 03:11:11;;;;;;;8.20;3.30;;;;;;;;;;5082990;28;20074;-69
2022/07/01 03:13:36;;;;;;;6.10;3.00;;;;;;;;;;5085281;28;20032;-69
2022/07/01 03:16:02;;;;;;;9.30;3.20;;;;;;;;;;5084611;28;20032;-69
2022/07/01 03:18:27;;;;;;;5.90;2.33;;;;;;;;;;5081155;28;20028;-67
2022/07/01 03:20:53;;;;;;;5.13;2.83;;;;;;;;;;5085143;28;20539;-68
2022/07/01 03:23:18;;;;;;;6.27;2.93;;;;;;;;;;5084088;28;20016;-68
2022/07/01 03:25:43;;;;;;;5.67;2.93;;;;;;;;;;5086066;28;20028;-68
2022/07/01 03:28:08;;;;;;;6.97;3.08;;;;;;;;;;5081731;28;20085;-68
2022/07/01 03:30:34;;;;;;;8.93;3.35;;;;;;;;;;5086039;28;20023;-68
2022/07/01 03:32:59;;;;;;;7.65;3.00;;;;;;;;;;5084044;28;20032;-68
2022/07/01 03:35:39;;;;;;;5.20;2.75;;;;;;;;;;5082361;28;20081;-68
2022/07/01 03:38:04;;;;;;;6.20;2.73;;;;;;;;;;5076942;28;20116;-68
2022/07/01 03:40:30;;;;;;;7.00;3.00;;;;;;;;;;5084754;28;20618;-68
2022/07/01 03:42:55;;;;;;;5.60;2.80;;;;;;;;;;5087568;28;20073;-68
2022/07/01 03:45:20;;;;;;;5.47;2.90;;;;;;;;;;5078888;28;20060;-68
2022/07/01 03:47:49;;;;;;;7.33;2.63;;;;;;;;;;5082722;28;20018;-68
2022/07/01 03:50:15;;;;;;;6.57;3.15;;;;;;;;;;5080159;28;20086;-68
2022/07/01 03:52:42;;;;;;;6.13;2.60;;;;;;;;;;5081101;28;20712;-68
2022/07/01 03:55:07;;;;;;;5.50;2.95;;;;;;;;;;5080025;28;20020;-68
2022/07/01 03:57:33;;;;;;;5.60;2.80;;;;;;;;;;5085864;28;20073;-68
2022/07/01 03:59:58;;;;;;;7.10;2.90;;;;;;;;;;5078248;28;20100;-68
2022/07/01 04:02:23;;;;;;;7.57;3.70;;;;;;;;;;5081736;28;20024;-68
2022/07/01 04:04:48;;;;;;;7.87;3.67;;;;;;;;;;5080374;28;20027;-67
2022/07/01 04:07:13;;;;;;;8.13;3.90;;;;;;;;;;5085981;28;20012;-68
2022/07/01 04:09:39;;;;;;;7.03;4.33;;;;;;;;;;5078119;28;20030;-68
2022/07/01 04:12:07;;;;;;;9.10;4.60;;;;;;;;;;5077022;28;20373;-68
2022/07/01 04:14:32;;;;;;;8.18;5.10;;;;;;;;;;5077895;28;20023;-68
2022/07/01 04:16:57;;;;;;;10.73;6.25;;;;;;;;;;5075738;28;20476;-68
2022/07/01 04:19:24;;;;;;;8.93;6.10;;;;;;;;;;5077521;28;20024;-68
2022/07/01 04:24:33;;;;;;;10.60;7.87;;;;;;;;;;5079183;28;20086;-68
2022/07/01 04:27:00;;;;;;;14.63;9.18;;;;;;;;;;5087515;28;20020;-68
2022/07/01 04:29:25;;;;;;;12.75;8.98;;;;;;;;;;5077351;28;20039;-68
2022/07/01 04:31:50;;;;;;;16.10;10.23;;;;;;;;;;5085048;28;20483;-68
2022/07/01 04:34:16;;;;;;;16.33;10.70;;;;;;;;;;5080641;28;20392;-69
2022/07/01 04:36:41;;;;;;;17.08;11.18;;;;;;;;;;5074523;28;20054;-69
2022/07/01 04:39:06;;;;;;;20.90;12.35;;;;;;;;;;5076763;28;20026;-69
2022/07/01 04:44:16;;;;;;;19.20;12.80;;;;;;;;;;5080067;28;20047;-69
2022/07/01 04:46:42;;;;;;;19.43;12.83;;;;;;;;;;5077055;28;20399;-68
2022/07/01 04:49:07;;;;;;;19.70;14.23;;;;;;;;;;5077822;28;20028;-68
2022/07/01 04:51:34;;;;;;;19.97;13.80;;;;;;;;;;5087801;28;20048;-69
2022/07/01 04:53:59;;;;;;;19.70;13.57;;;;;;;;;;5091533;28;20024;-69
2022/07/01 04:56:26;;;;;;;20.38;14.68;;;;;;;;;;5089530;28;20020;-69
2022/07/01 04:58:51;;;;;;;22.58;14.68;;;;;;;;;;5091135;28;20024;-69
2022/07/01 05:01:17;;;;;;;25.03;14.50;;;;;;;;;;5087499;28;20024;-69
2022/07/01 05:03:42;;;;;;;23.80;15.87;;;;;;;;;;5082618;28;20114;-69
2022/07/01 05:06:07;;;;;;;22.50;15.50;;;;;;;;;;5070951;28;20023;-69
2022/07/01 05:08:32;;;;;;;25.07;16.00;;;;;;;;;;5081305;28;20016;-69
2022/07/01 05:10:58;;;;;;;24.10;15.87;;;;;;;;;;5090791;28;20020;-69
2022/07/01 05:13:23;;;;;;;24.85;14.68;;;;;;;;;;5072095;28;20357;-69
2022/07/01 05:15:48;;;;;;;23.37;13.60;;;;;;;;;;5070565;28;20020;-69
2022/07/01 05:23:41;;;;;;;27.13;15.40;;;;;;;;;;5074105;28;20630;-69
2022/07/01 05:26:06;;;;;;;23.10;14.27;;;;;;;;;;5070986;28;20057;-69
2022/07/01 05:28:32;;;;;;;25.73;14.53;;;;;;;;;;5085069;28;20016;-69
2022/07/01 05:30:57;;;;;;;24.60;14.70;;;;;;;;;;5083414;28;20100;-68
2022/07/01 05:33:26;;;;;;;21.97;13.30;;;;;;;;;;5075592;28;20365;-69
2022/07/01 05:35:51;;;;;;;22.77;14.35;;;;;;;;;;5083706;28;20035;-69
2022/07/01 05:38:17;;;;;;;23.87;14.87;;;;;;;;;;5082570;28;20020;-68
2022/07/01 05:40:42;;;;;;;20.13;13.53;;;;;;;;;;5085058;28;20472;-69
2022/07/01 05:43:07;;;;;;;23.03;14.30;;;;;;;;;;5076909;28;20424;-68
2022/07/01 05:45:32;;;;;;;23.80;14.80;;;;;;;;;;5078323;28;20476;-68
2022/07/01 05:47:57;;;;;;;21.23;13.70;;;;;;;;;;5084563;28;20012;-68
2022/07/01 05:50:23;;;;;;;23.27;14.60;;;;;;;;;;5077864;28;20033;-69
2022/07/01 05:52:48;;;;;;;23.93;15.47;;;;;;;;;;5074382;28;20111;-69
2022/07/01 05:55:14;;;;;;;23.37;15.20;;;;;;;;;;5076411;28;20028;-68
2022/07/01 05:57:39;;;;;;;22.23;13.98;;;;;;;;;;5094980;28;20028;-69
2022/07/01 06:00:05;;;;;;;25.40;15.55;;;;;;;;;;5086501;28;20230;-68
2022/07/01 06:02:30;;;;;;;20.15;13.73;;;;;;;;;;5074139;28;20382;-68
2022/07/01 06:04:55;;;;;;;21.95;15.48;;;;;;;;;;5091719;28;20024;-68
2022/07/01 06:07:20;;;;;;;22.38;16.23;;;;;;;;;;5089523;28;20032;-68
2022/07/01 06:09:46;;;;;;;26.58;16.42;;;;;;;;;;5074088;28;20023;-68
2022/07/01 06:12:11;;;;;;;25.67;17.20;;;;;;;;;;5090752;28;20081;-69
2022/07/01 06:14:37;;;;;;;25.08;16.45;;;;;;;;;;5094764;28;20372;-68
2022/07/01 06:17:03;;;;;;;26.42;16.90;;;;;;;;;;5094288;28;20028;-68
2022/07/01 06:19:28;;;;;;;26.80;18.23;;;;;;;;;;5094220;28;20030;-68
2022/07/01 06:21:53;;;;;;;26.02;18.35;;;;;;;;;;5080245;28;20029;-68
2022/07/01 06:24:19;;;;;;;24.67;17.52;;;;;;;;;;5074384;28;20048;-68
2022/07/01 06:26:46;;;;;;;27.33;17.35;;;;;;;;;;5082998;28;20028;-68
2022/07/01 06:29:13;;;;;;;27.05;17.63;;;;;;;;;;5080164;28;20028;-69
2022/07/01 06:31:38;;;;;;;24.27;17.90;;;;;;;;;;5073889;28;20024;-69
2022/07/01 06:34:03;;;;;;;28.52;19.52;;;;;;;;;;5074001;28;20035;-68
2022/07/01 06:36:29;;;;;;;23.92;16.88;;;;;;;;;;5081259;28;20023;-69
2022/07/01 06:38:54;;;;;;;27.38;18.55;;;;;;;;;;5073383;28;20032;-68
2022/07/01 06:41:28;;;;;;;28.40;17.95;;;;;;;;;;5077929;28;20377;-69
2022/07/01 06:43:54;;;;;;;26.60;18.27;;;;;;;;;;5093656;28;20541;-68
2022/07/01 06:46:20;;;;;;;28.33;19.23;;;;;;;;;;5093990;28;20354;-68
2022/07/01 06:48:45;;;;;;;30.10;18.67;;;;;;;;;;5093865;28;20027;-68
2022/07/01 06:51:10;;;;;;;28.30;18.42;;;;;;;;;;5083227;28;20107;-68
2022/07/01 06:53:36;;;;;;;29.65;19.40;;;;;;;;;;5091845;28;20484;-68
2022/07/01 06:56:02;;;;;;;24.92;16.98;;;;;;;;;;5092380;28;20059;-68
2022/07/01 06:58:28;;;;;;;28.95;19.58;;;;;;;;;;5073264;28;20028;-68
2022/07/01 07:00:53;;;;;;;28.88;19.00;;;;;;;;;;5073055;28;20025;-68
2022/07/01 07:03:18;;;;;;;35.08;20.52;;;;;;;;;;5089828;28;20115;-68
2022/07/01 07:05:43;;;;;;;31.65;21.27;;;;;;;;;;5088236;28;20452;-68
2022/07/01 07:08:09;;;;;;;30.10;19.10;;;;;;;;;;5074583;28;20391;-68
2022/07/01 07:10:34;;;;;;;32.50;20.75;;;;;;;;;;5093415;28;20470;-68
2022/07/01 07:12:59;;;;;;;33.25;21.55;;;;;;;;;;5091652;28;20040;-68
2022/07/01 07:15:24;;;;;;;31.20;19.75;;;;;;;;;;5093486;28;20440;-68
2022/07/01 07:17:50;;;;;;;30.30;19.73;;;;;;;;;;5093353;28;20457;-68
2022/07/01 07:20:15;;;;;;;33.35;21.08;;;;;;;;;;5090410;28;20028;-68
2022/07/01 07:22:40;;;;;;;30.63;19.80;;;;;;;;;;5086921;28;20173;-68
2022/07/01 07:25:05;;;;;;;32.25;21.35;;;;;;;;;;5081923;28;20025;-68
2022/07/01 07:27:31;;;;;;;34.78;22.50;;;;;;;;;;5089211;28;20043;-68
2022/07/01 07:29:56;;;;;;;31.13;19.92;;;;;;;;;;5072579;28;20016;-68
2022/07/01 07:32:21;;;;;;;32.58;21.77;;;;;;;;;;5072702;28;20024;-68
2022/07/01 07:34:46;;;;;;;34.05;22.80;;;;;;;;;;5072549;28;20063;-68
2022/07/01 07:37:11;;;;;;;31.42;20.52;;;;;;;;;;5075148;28;20032;-68
2022/07/01 07:39:37;;;;;;;30.05;21.10;;;;;;;;;;5072620;28;20082;-68
2022/07/01 07:42:03;;;;;;;31.55;19.67;;;;;;;;;;5081104;28;20040;-68
2022/07/01 07:44:28;;;;;;;32.03;21.30;;;;;;;;;;5072617;28;20025;-68
2022/07/01 07:46:53;;;;;;;29.75;19.38;;;;;;;;;;5072465;28;20029;-68
2022/07/01 07:49:19;;;;;;;29.42;20.23;;;;;;;;;;5072040;28;20029;-68
2022/07/01 07:51:44;;;;;;;30.35;18.52;;;;;;;;;;5074097;28;20036;-67
2022/07/01 07:54:09;;;;;;;29.92;19.38;;;;;;;;;;5072627;28;20035;-68
2022/07/01 07:56:34;;;;;;;26.33;19.13;;;;;;;;;;5076573;28;20051;-68
2022/07/01 07:59:00;;;;;;;26.60;19.38;;;;;;;;;;5089579;28;20019;-68
2022/07/01 08:01:25;;;;;;;29.25;20.27;;;;;;;;;;5072077;28;20013;-68
2022/07/01 08:03:50;;;;;;;28.30;20.02;;;;;;;;;;5081637;28;20043;-67
2022/07/01 08:06:15;;;;;;;29.52;19.60;;;;;;;;;;5082863;28;20024;-67
2022/07/01 08:08:41;;;;;;;31.10;20.88;;;;;;;;;;5071881;28;20084;-67
2022/07/01 08:11:06;;;;;;;28.27;18.80;;;;;;;;;;5072081;28;20016;-68
2022/07/01 08:13:31;;;;;;;29.35;19.00;;;;;;;;;;5087126;28;20024;-68
2022/07/01 08:15:57;;;;;;;26.17;19.05;;;;;;;;;;5091055;28;20444;-67
2022/07/01 08:18:22;;;;;;;28.77;20.25;;;;;;;;;;5092303;28;20024;-67
2022/07/01 08:20:47;;;;;;;25.35;18.48;;;;;;;;;;5084437;28;20473;-67
2022/07/01 08:23:12;;;;;;;27.55;19.15;;;;;;;;;;5071409;28;20066;-67
2022/07/01 08:25:38;;;;;;;27.15;18.77;;;;;;;;;;5071718;28;20021;-67
2022/07/01 08:28:03;;;;;;;29.80;18.67;;;;;;;;;;5083801;28;20032;-67
2022/07/01 08:30:29;;;;;;;26.42;18.70;;;;;;;;;;5092213;28;20024;-68
2022/07/01 08:32:54;;;;;;;28.90;19.52;;;;;;;;;;5090786;28;20031;-67
2022/07/01 08:35:19;;;;;;;23.88;16.38;;;;;;;;;;5081051;28;20032;-67
2022/07/01 08:37:45;;;;;;;27.98;19.08;;;;;;;;;;5083280;28;20032;-67
2022/07/01 08:40:10;;;;;;;24.08;15.40;;;;;;;;;;5092091;28;20100;-68
2022/07/01 08:42:35;;;;;;;26.75;18.85;;;;;;;;;;5084196;28;20059;-67
2022/07/01 08:45:00;;;;;;;28.00;17.40;;;;;;;;;;5071806;28;20094;-67
2022/07/01 08:47:26;;;;;;;25.23;17.60;;;;;;;;;;5072400;28;20016;-67
2022/07/01 08:49:51;;;;;;;24.90;17.67;;;;;;;;;;5072342;28;20445;-67
2022/07/01 08:52:16;;;;;;;23.10;16.88;;;;;;;;;;5090980;28;20036;-67
2022/07/01 08:54:41;;;;;;;21.73;15.20;;;;;;;;;;5091682;28;20395;-68
2022/07/01 08:57:08;;;;;;;24.13;16.85;;;;;;;;;;5090387;28;20038;-67
2022/07/01 08:59:33;;;;;;;24.52;16.85;;;;;;;;;;5073161;28;20028;-67
2022/07/01 09:01:59;;;;;;;23.95;15.93;;;;;;;;;;5071138;28;20074;-67
2022/07/01 09:04:25;;;;;;;21.20;14.77;;;;;;;;;;5070766;28;20045;-67
2022/07/01 09:06:50;;;;;;;22.98;15.18;;;;;;;;;;5074107;28;20032;-68
2022/07/01 09:09:16;;;;;;;23.02;17.17;;;;;;;;;;5090896;28;20020;-67
2022/07/01 09:11:46;;;;;;;21.02;15.68;;;;;;;;;;5089982;28;20024;-68
2022/07/01 09:14:13;;;;;;;20.85;14.45;;;;;;;;;;5089573;28;20026;-67
2022/07/01 09:16:44;;;;;;;19.13;13.75;;;;;;;;;;5091330;28;20413;-67
2022/07/01 09:19:10;;;;;;;17.13;13.55;;;;;;;;;;5071180;28;20113;-67
2022/07/01 09:21:35;;;;;;;18.55;12.63;;;;;;;;;;5073716;28;20434;-67
2022/07/01 09:24:19;;;;;;;20.67;12.70;;;;;;;;;;5087502;28;20231;-68
2022/07/01 09:26:58;;;;;;;20.73;12.98;;;;;;;;;;5091940;28;20024;-67
2022/07/01 09:29:28;;;;;;;19.75;13.35;;;;;;;;;;5078852;28;20020;-68
2022/07/01 09:31:53;;;;;;;19.30;13.32;;;;;;;;;;5075080;28;20109;-68
2022/07/01 09:34:18;;;;;;;18.08;12.82;;;;;;;;;;5075135;28;20099;-67
2022/07/01 09:36:51;;;;;;;21.33;13.73;;;;;;;;;;5077445;28;20440;-68
2022/07/01 09:39:16;;;;;;;19.65;13.73;;;;;;;;;;5094578;28;20472;-67
2022/07/01 09:41:41;;;;;;;17.50;12.88;;;;;;;;;;5095314;28;20085;-68
2022/07/01 09:44:07;;;;;;;19.48;13.80;;;;;;;;;;5079531;28;20453;-67
2022/07/01 09:46:33;;;;;;;17.25;12.27;;;;;;;;;;5094477;28;20651;-67
2022/07/01 09:48:59;;;;;;;18.63;13.30;;;;;;;;;;5094776;28;20020;-67
2022/07/01 09:51:24;;;;;;;17.45;13.18;;;;;;;;;;5091096;28;20035;-67
2022/07/01 09:53:49;;;;;;;17.45;13.05;;;;;;;;;;5094254;28;20540;-67
2022/07/01 09:56:14;;;;;;;19.52;13.98;;;;;;;;;;5092457;28;20357;-68
2022/07/01 09:58:42;;;;;;;18.48;13.45;;;;;;;;;;5083698;28;20485;-67
2022/07/01 10:01:08;;;;;;;18.75;13.38;;;;;;;;;;5088580;28;20404;-67
2022/07/01 10:03:33;;;;;;;17.08;12.25;;;;;;;;;;5085228;28;20020;-67
2022/07/01 10:06:24;;;;;;;19.15;13.20;;;;;;;;;;5076603;28;20024;-67
2022/07/01 10:08:59;;;;;;;19.58;13.20;;;;;;;;;;5074113;28;20099;-68
2022/07/01 10:11:26;;;;;;;20.90;13.13;;;;;;;;;;5074037;28;20039;-67
2022/07/01 10:13:52;;;;;;;16.38;12.50;;;;;;;;;;5083617;28;20093;-67
2022/07/01 10:16:19;;;;;;;18.27;13.45;;;;;;;;;;5093860;28;20032;-67
2022/07/01 10:18:44;;;;;;;17.30;12.65;;;;;;;;;;5091162;28;20102;-67
2022/07/01 10:21:24;;;;;;;16.98;12.05;;;;;;;;;;5090594;28;20602;-68
2022/07/01 10:23:51;;;;;;;16.45;11.98;;;;;;;;;;5094446;28;20016;-67
2022/07/01 10:26:18;;;;;;;18.55;12.32;;;;;;;;;;5094103;28;20027;-68
2022/07/01 10:28:45;;;;;;;14.20;11.13;;;;;;;;;;5084262;28;20048;-68
2022/07/01 10:31:15;;;;;;;17.60;11.88;;;;;;;;;;5091136;28;20020;-68
2022/07/01 10:33:54;;;;;;;15.07;11.23;;;;;;;;;;5093739;28;20433;-67
2022/07/01 10:36:20;;;;;;;15.95;10.05;;;;;;;;;;5077721;28;20082;-68
2022/07/01 10:39:00;;;;;;;15.15;10.40;;;;;;;;;;5086160;28;20040;-68
2022/07/01 10:41:26;;;;;;;15.60;10.25;;;;;;;;;;5091978;28;20020;-68
2022/07/01 10:43:53;;;;;;;11.63;8.43;;;;;;;;;;5085764;28;20051;-68
2022/07/01 10:46:37;;;;;;;10.20;7.55;;;;;;;;;;5073893;28;20087;-68
2022/07/01 10:49:02;;;;;;;11.52;7.07;;;;;;;;;;5073732;28;20471;-68
2022/07/01 10:51:50;;;;;;;10.15;7.55;;;;;;;;;;5075469;28;20020;-69
2022/07/01 10:54:34;;;;;;;12.27;8.35;;;;;;;;;;5073377;28;20129;-68
2022/07/01 10:57:18;;;;;;;11.52;8.13;;;;;;;;;;5073229;28;20027;-68
2022/07/01 10:59:45;;;;;;;10.50;7.15;;;;;;;;;;5076030;28;20066;-68
2022/07/01 11:02:14;;;;;;;11.90;7.22;;;;;;;;;;5079608;28;20027;-68
2022/07/01 11:04:39;;;;;;;10.82;6.95;;;;;;;;;;5093494;28;20023;-68
2022/07/01 11:07:05;;;;;;;12.38;7.53;;;;;;;;;;5079665;28;20017;-68
2022/07/01 11:09:30;;;;;;;11.13;7.18;;;;;;;;;;5073335;28;20106;-68
2022/07/01 11:11:55;;;;;;;12.25;6.80;;;;;;;;;;5073033;28;20024;-68
2022/07/01 11:14:21;;;;;;;9.93;6.95;;;;;;;;;;5084292;28;20016;-68
2022/07/01 11:16:46;;;;;;;11.38;7.78;;;;;;;;;;5093199;28;20043;-68
2022/07/01 11:19:11;;;;;;;11.90;7.00;;;;;;;;;;5085315;28;20020;-68
2022/07/01 11:21:36;;;;;;;11.10;6.43;;;;;;;;;;5075087;28;20048;-68
2022/07/01 11:24:02;;;;;;;10.13;6.20;;;;;;;;;;5093206;28;20062;-68
2022/07/01 11:26:27;;;;;;;10.05;6.78;;;;;;;;;;5093281;28;20039;-68
2022/07/01 11:28:52;;;;;;;12.82;6.80;;;;;;;;;;5092464;28;20009;-68
2022/07/01 11:31:30;;;;;;;10.85;6.72;;;;;;;;;;5092290;28;20027;-68
2022/07/01 11:33:56;;;;;;;10.13;7.00;;;;;;;;;;5081460;28;20020;-68
2022/07/01 11:39:41;;;;;;;12.18;7.90;;;;;;;;;;5072649;28;20154;-68
2022/07/01 11:41:57;;;;;;;9.32;6.85;;;;;;;;;;5070107;28;20044;-68
2022/07/01 11:44:39;;;;;;;11.32;7.18;;;;;;;;;;5075130;28;20106;-68
2022/07/01 11:47:08;;;;;;;12.02;7.65;;;;;;;;;;5092765;28;20409;-68
2022/07/01 11:49:34;;;;;;;12.02;7.18;;;;;;;;;;5084307;28;20465;-69
2022/07/01 11:52:01;;;;;;;10.93;6.30;;;;;;;;;;5074444;28;20111;-67
2022/07/01 11:54:26;;;;;;;8.77;6.40;;;;;;;;;;5072193;28;20024;-69
2022/07/01 11:56:51;;;;;;;11.68;6.70;;;;;;;;;;5072060;28;20102;-68
2022/07/01 11:59:17;;;;;;;11.60;6.93;;;;;;;;;;5076559;28;20020;-68
2022/07/01 12:01:50;;;;;;;12.00;6.75;;;;;;;;;;5072897;28;20024;-68
2022/07/01 12:04:16;;;;;;;10.95;6.75;;;;;;;;;;5072402;28;20472;-68
2022/07/01 12:06:42;;;;;;;10.75;6.32;;;;;;;;;;5074163;28;20032;-68
2022/07/01 12:09:12;;;;;;;11.15;7.00;;;;;;;;;;5071982;28;20095;-68
2022/07/01 12:11:37;;;;;;;11.02;6.63;;;;;;;;;;5089141;28;20020;-68
2022/07/01 12:14:02;;;;;;;10.35;6.07;;;;;;;;;;5083951;28;20430;-69
2022/07/01 12:16:37;;;;;;;7.63;5.03;;;;;;;;;;5071284;28;22023;-69
2022/07/01 12:19:02;;;;;;;9.10;5.20;;;;;;;;;;5078376;28;20023;-69
2022/07/01 12:21:28;;;;;;;9.60;5.28;;;;;;;;;;5072988;28;20058;-68
2022/07/01 12:24:06;;;;;;;10.73;5.65;;;;;;;;;;5071280;28;20056;-68
2022/07/01 12:26:31;;;;;;;8.20;4.57;;;;;;;;;;5081794;28;20031;-69
2022/07/01 12:28:56;;;;;;;6.65;4.50;;;;;;;;;;5078827;28;20028;-68
2022/07/01 12:31:21;;;;;;;10.25;5.07;;;;;;;;;;5074497;28;20029;-68
2022/07/01 12:33:50;;;;;;;8.43;4.65;;;;;;;;;;5085620;28;20032;-69
2022/07/01 12:36:15;;;;;;;8.13;4.80;;;;;;;;;;5088506;28;20020;-68
2022/07/01 12:38:41;;;;;;;8.38;4.60;;;;;;;;;;5081111;28;20036;-68
2022/07/01 12:41:25;;;;;;;7.82;4.32;;;;;;;;;;5083831;28;20024;-68
2022/07/01 12:43:50;;;;;;;7.20;4.63;;;;;;;;;;5086462;28;20020;-68
2022/07/01 12:46:26;;;;;;;8.32;4.70;;;;;;;;;;5088902;28;20034;-68
2022/07/01 12:48:52;;;;;;;7.28;4.53;;;;;;;;;;5081564;28;20061;-68
2022/07/01 12:51:17;;;;;;;6.97;4.20;;;;;;;;;;5079411;28;20035;-68
2022/07/01 12:53:42;;;;;;;8.80;4.45;;;;;;;;;;5085397;28;20036;-68
2022/07/01 12:56:08;;;;;;;9.32;4.32;;;;;;;;;;5075150;28;20016;-68
2022/07/01 12:58:33;;;;;;;7.53;4.03;;;;;;;;;;5080747;28;20120;-68
2022/07/01 13:00:59;;;;;;;8.88;4.20;;;;;;;;;;5072574;28;20162;-68
2022/07/01 13:03:25;;;;;;;7.60;4.00;;;;;;;;;;5076904;28;20024;-68
2022/07/01 13:05:51;;;;;;;6.35;3.80;;;;;;;;;;5085577;28;20031;-69
2022/07/01 13:08:17;;;;;;;7.07;3.90;;;;;;;;;;5089258;28;20016;-68
2022/07/01 13:10:42;;;;;;;8.93;3.78;;;;;;;;;;5091553;28;20106;-68
2022/07/01 13:13:08;;;;;;;7.10;3.13;;;;;;;;;;5091466;28;20085;-69
2022/07/01 13:15:34;;;;;;;6.25;2.95;;;;;;;;;;5090009;28;20464;-68
2022/07/01 13:17:59;;;;;;;5.78;3.10;;;;;;;;;;5077878;28;20040;-68
2022/07/01 13:20:24;;;;;;;6.35;2.95;;;;;;;;;;5071495;28;20037;-68
2022/07/01 13:22:50;;;;;;;11.73;3.40;;;;;;;;;;5070991;28;20377;-68
2022/07/01 13:25:15;;;;;;;5.50;3.10;;;;;;;;;;5069593;28;20016;-68
2022/07/01 13:27:43;;;;;;;6.55;3.25;;;;;;;;;;5071343;28;20493;-68
2022/07/01 13:30:08;;;;;;;8.63;3.63;;;;;;;;;;5085018;28;20016;-68
2022/07/01 13:32:34;;;;;;;6.20;3.22;;;;;;;;;;5091154;28;20080;-68
2022/07/01 13:35:00;;;;;;;5.85;2.95;;;;;;;;;;5089802;28;20035;-68
2022/07/01 13:37:25;;;;;;;5.45;2.80;;;;;;;;;;5091552;28;20024;-68
2022/07/01 13:39:50;;;;;;;6.45;3.30;;;;;;;;;;5091375;28;20036;-68
2022/07/01 13:42:16;;;;;;;5.78;3.28;;;;;;;;;;5091285;28;20376;-68
2022/07/01 13:44:41;;;;;;;7.72;3.13;;;;;;;;;;5089603;28;20462;-68
2022/07/01 13:47:09;;;;;;;5.30;2.75;;;;;;;;;;5091321;28;20552;-68
2022/07/01 13:49:34;;;;;;;5.55;3.00;;;;;;;;;;5090760;28;20020;-68
2022/07/01 13:51:59;;;;;;;6.32;3.47;;;;;;;;;;5091055;28;20548;-68
2022/07/01 13:54:25;;;;;;;7.70;3.22;;;;;;;;;;5083395;28;20023;-68
2022/07/01 13:56:50;;;;;;;6.63;3.03;;;;;;;;;;5070874;28;20031;-68
2022/07/01 13:59:15;;;;;;;6.85;3.15;;;;;;;;;;5073499;28;20066;-68
2022/07/01 14:01:40;;;;;;;6.22;3.15;;;;;;;;;;5070915;28;20495;-68
2022/07/01 14:04:06;;;;;;;7.28;3.40;;;;;;;;;;5077168;28;20495;-68
2022/07/01 14:06:31;;;;;;;8.18;3.63;;;;;;;;;;5080448;28;20122;-68
2022/07/01 14:08:56;;;;;;;8.30;3.28;;;;;;;;;;5070856;28;20488;-68
2022/07/01 14:11:21;;;;;;;6.65;3.30;;;;;;;;;;5080274;28;20526;-68
2022/07/01 14:13:47;;;;;;;7.60;3.20;;;;;;;;;;5091848;28;20508;-67
2022/07/01 14:16:12;;;;;;;5.85;3.33;;;;;;;;;;5091286;28;20536;-67
2022/07/01 14:18:37;;;;;;;8.32;2.83;;;;;;;;;;5091182;28;20032;-68
2022/07/01 14:21:03;;;;;;;5.30;2.80;;;;;;;;;;5076595;28;20059;-68
2022/07/01 14:23:29;;;;;;;5.38;3.17;;;;;;;;;;5086393;28;20024;-67
2022/07/01 14:25:54;;;;;;;6.18;2.80;;;;;;;;;;5088979;28;20008;-68
2022/07/01 14:28:19;;;;;;;5.63;3.00;;;;;;;;;;5094512;28;20406;-68
2022/07/01 14:30:45;;;;;;;6.63;3.03;;;;;;;;;;5081725;28;20066;-68
2022/07/01 14:33:10;;;;;;;6.78;3.15;;;;;;;;;;5073796;28;20086;-68
2022/07/01 14:35:36;;;;;;;4.82;2.83;;;;;;;;;;5072501;28;20025;-68
2022/07/01 14:38:01;;;;;;;5.47;3.00;;;;;;;;;;5073772;28;20503;-68
2022/07/01 14:40:26;;;;;;;9.30;3.17;;;;;;;;;;5073694;28;20019;-67